Information for Fernando de Noronha Airport

back to airport list

ICAO Code:SBFN Country:Brazil
Airport Name:Fernando de Noronha Airport Is Hub:No
Latitude:-3.85472 Longitude:-32.4283
Scheduled Departures:0 Scheduled Arrivals:0
Total Past Departures:1 Total Past Arrivals:1
Pilots Based:0 Current Pilot Location:0
SBFN 211300Z 12014KT 9999 SCT021 30/22 Q1013


Nearby Destination Airports

ICAO Airport Country GC Distance View
SBFZ Pinto Martins – Fortaleza International Airport Brazil 366 NM View Airport Page


+ Show Timetable

Scheduled Departures from SBFN

Flight To Destination Days Dep. Time Aircraft Info
No Scheduled Departures!


Scheduled Arrivals to SBFN

Flight From Origin Days Arr. Time Aircraft Info
No Scheduled Arrivals!
+ Show Recent Flight Info

Recent Departures from SBFN

Flight To Destination Pilot Flighttime Landingrate Aircraft View
ASXC55 GVAC Amílcar Cabral International Airport Damian Belica 03.39.40 -254 ft/m B734 View Report


Recent Arrivals to SBFN

Flight From Origin Pilot Flighttime Landingrate Aircraft View
ASXC49 SBFZ Pinto Martins – Fortaleza International Airport Damian Belica 01.23.35 -155 ft/m B734 View Report
+ Show Pilot Information

Pilots based at SBFN

Avatar Pilot ID Name Location Rank View Profile
No Pilots are based at this airport!


Pilots currently at SBFN

Avatar Pilot ID Name Location Rank On Location since View Profile
Currently there are no pilots at this airport!
- Hide Map